Pietermaritzburg, South Africa
Current Conditions -  °F | °C
As of 7:00 PM on Friday 24 Oct 2014 (Local Time) from FALE Reporting Station
Broken Clouds Broken Clouds  
Wind Chill: 70°   Ceiling: 4800
Heat Index: 70°   Visibility: 6mi
Dew Point: 63°   Wind: 5mph
Humidity: 78%   Direction: 50°NE
Pressure: 30.03"   Gusts: NA
Location:  29.61°S, 30.39°E
Report Text: FALE 241700Z 05004KT 9999 FEW025 BKN048 21/17 Q1017 NOSIG
Loading
Personal Weather Stations






























Interactive Weather Map
Tropical Storm Tracking
New forecast layout! Learn more

10-Day Weather Forecast

Advertisements
Track Severe Weather on mobile